Time;durP1;ratioP1;P1;durP2;ratioP2;P2;SDS_P1;SDS_P2;PMS_P1;PMS_P2;Temp;Humidity;BMP_temperature;BMP_pressure;BME280_temperature;BME280_humidity;BME280_pressure;Samples;Min_cycle;Max_cycle;Signal;HPM_P1;HPM_P2
2023/08/07 00:01:29;;;;;;;4.68;1.55;;;;;;;13.29;100.00;101136.88;5088054;28;20122;-78
2023/08/07 00:04:15;;;;;;;3.55;1.20;;;;;;;13.25;100.00;101134.94;5075504;28;20039;-79
2023/08/07 00:07:02;;;;;;;2.63;1.20;;;;;;;13.22;100.00;101132.72;5085931;28;20052;-78
2023/08/07 00:09:47;;;;;;;5.72;1.63;;;;;;;13.22;100.00;101133.56;5088675;28;20047;-78
2023/08/07 00:12:33;;;;;;;4.15;1.48;;;;;;;13.21;100.00;101131.91;5088762;28;20037;-78
2023/08/07 00:15:19;;;;;;;4.80;1.50;;;;;;;13.19;100.00;101134.97;5080665;28;20039;-78
2023/08/07 00:18:05;;;;;;;8.02;1.40;;;;;;;13.22;100.00;101132.72;5089006;28;20158;-78
2023/08/07 00:20:50;;;;;;;3.25;1.33;;;;;;;13.13;100.00;101129.78;5079109;28;20061;-78
2023/08/07 00:23:36;;;;;;;7.32;1.52;;;;;;;13.13;100.00;101136.19;5084659;28;20031;-78
2023/08/07 00:26:22;;;;;;;5.68;1.40;;;;;;;13.10;100.00;101130.38;5070793;28;20441;-78
2023/08/07 00:29:08;;;;;;;3.78;1.42;;;;;;;13.06;100.00;101127.31;5105629;28;20036;-78
2023/08/07 00:31:54;;;;;;;5.75;1.55;;;;;;;13.04;100.00;101123.16;5095340;28;20088;-78
2023/08/07 00:34:39;;;;;;;4.97;1.13;;;;;;;12.97;100.00;101129.09;5080306;28;20031;-79
2023/08/07 00:37:25;;;;;;;3.95;1.42;;;;;;;12.96;100.00;101131.06;5088769;28;20027;-78
2023/08/07 00:40:11;;;;;;;5.88;1.55;;;;;;;12.90;100.00;101125.84;5093450;28;20036;-78
2023/08/07 00:42:57;;;;;;;6.15;2.00;;;;;;;12.88;100.00;101122.50;5077439;28;20064;-78
2023/08/07 00:45:43;;;;;;;4.45;1.60;;;;;;;12.87;100.00;101120.84;5090892;28;20028;-78
2023/08/07 00:48:29;;;;;;;4.85;1.55;;;;;;;12.83;100.00;101123.38;5091174;28;20038;-78
2023/08/07 00:51:15;;;;;;;4.95;1.50;;;;;;;12.80;100.00;101131.50;5076169;28;20059;-78
2023/08/07 00:54:01;;;;;;;3.15;1.25;;;;;;;12.78;100.00;101126.22;5081283;28;20028;-78
2023/08/07 00:56:46;;;;;;;4.45;1.30;;;;;;;12.75;100.00;101121.25;5088441;28;20024;-79
2023/08/07 00:59:33;;;;;;;3.90;1.15;;;;;;;12.71;100.00;101111.81;5107121;28;20027;-78
2023/08/07 01:02:19;;;;;;;4.25;1.50;;;;;;;12.70;100.00;101102.63;5078113;28;20411;-78
2023/08/07 01:05:05;;;;;;;4.38;1.50;;;;;;;12.70;100.00;101108.19;5063849;28;20036;-78
2023/08/07 01:07:54;;;;;;;3.00;1.20;;;;;;;12.68;100.00;101116.00;5091316;28;20051;-78
2023/08/07 01:11:04;;;;;;;3.70;1.48;;;;;;;12.71;100.00;101111.81;5074465;28;20032;-78
2023/08/07 01:13:58;;;;;;;3.55;1.38;;;;;;;12.64;100.00;101111.31;5091346;28;20036;-78
2023/08/07 01:16:52;;;;;;;3.25;1.40;;;;;;;12.60;100.00;101110.25;5063396;28;20050;-78
2023/08/07 01:19:38;;;;;;;4.40;1.50;;;;;;;12.54;100.00;101109.47;5090687;28;20105;-79
2023/08/07 01:22:24;;;;;;;3.20;1.30;;;;;;;12.57;100.00;101113.63;5094618;28;20032;-78
2023/08/07 01:25:09;;;;;;;4.00;1.35;;;;;;;12.52;100.00;101114.50;5082458;28;20100;-78
2023/08/07 01:28:19;;;;;;;2.38;1.13;;;;;;;12.50;100.00;101111.16;5086717;28;20040;-78
2023/08/07 01:31:08;;;;;;;3.72;1.60;;;;;;;12.48;100.00;101110.63;5102726;28;20031;-78
2023/08/07 01:33:58;;;;;;;4.22;1.40;;;;;;;12.47;100.00;101120.94;5092950;28;20039;-78
2023/08/07 01:36:44;;;;;;;4.85;1.55;;;;;;;12.46;100.00;101113.72;5087847;28;20036;-78
2023/08/07 01:39:30;;;;;;;3.53;1.30;;;;;;;12.40;100.00;101116.84;5064872;28;20032;-78
2023/08/07 01:42:15;;;;;;;5.00;1.63;;;;;;;12.41;100.00;101116.53;5073576;28;20034;-78
2023/08/07 01:45:01;;;;;;;4.15;1.60;;;;;;;12.37;100.00;101120.19;5073753;28;20100;-78
2023/08/07 01:47:47;;;;;;;4.20;1.40;;;;;;;12.33;100.00;101119.13;5082954;28;20105;-78
2023/08/07 01:50:33;;;;;;;5.32;1.50;;;;;;;12.29;100.00;101116.91;5089301;28;20095;-78
2023/08/07 01:53:19;;;;;;;6.45;1.63;;;;;;;12.28;100.00;101109.66;5086164;28;20555;-78
2023/08/07 01:56:04;;;;;;;7.97;1.73;;;;;;;12.28;100.00;101106.06;5074558;28;20032;-78
2023/08/07 01:58:50;;;;;;;2.78;1.00;;;;;;;12.23;100.00;101103.31;5068949;28;20032;-78
2023/08/07 02:01:36;;;;;;;3.92;1.23;;;;;;;12.22;100.00;101108.06;5079421;28;20038;-80
2023/08/07 02:04:22;;;;;;;3.03;1.60;;;;;;;12.16;100.00;101120.34;5096086;28;20048;-80
2023/08/07 02:07:08;;;;;;;4.60;1.55;;;;;;;12.16;100.00;101116.75;5080219;28;20492;-80
2023/08/07 02:09:54;;;;;;;4.72;1.45;;;;;;;12.14;100.00;101114.22;5064631;28;20039;-80
2023/08/07 02:12:40;;;;;;;4.13;1.42;;;;;;;12.15;100.00;101112.31;5080344;28;20050;-79
2023/08/07 02:15:25;;;;;;;6.32;1.85;;;;;;;12.12;100.00;101110.94;5083985;28;20502;-78
2023/08/07 02:18:11;;;;;;;4.47;1.70;;;;;;;12.11;100.00;101112.03;5063960;28;20040;-78
2023/08/07 02:20:57;;;;;;;3.88;1.45;;;;;;;12.07;100.00;101109.00;5080982;28;20123;-78
2023/08/07 02:23:43;;;;;;;5.50;1.33;;;;;;;12.08;100.00;101101.47;5087556;28;20028;-80
2023/08/07 02:26:28;;;;;;;5.22;1.60;;;;;;;12.02;100.00;101105.44;5088094;28;20028;-80
2023/08/07 02:29:14;;;;;;;6.60;1.60;;;;;;;12.01;100.00;101101.81;5077213;28;20385;-81
2023/08/07 02:32:03;;;;;;;5.88;1.98;;;;;;;11.99;100.00;101092.09;5076343;28;20036;-79
2023/08/07 02:34:49;;;;;;;4.47;1.50;;;;;;;11.96;100.00;101089.88;5079831;28;20036;-79
2023/08/07 02:37:35;;;;;;;6.07;1.55;;;;;;;11.94;100.00;101095.72;5084789;28;20120;-79
2023/08/07 02:40:20;;;;;;;3.42;1.42;;;;;;;11.90;100.00;101099.41;5099404;28;20028;-79
2023/08/07 02:43:06;;;;;;;5.57;1.70;;;;;;;11.87;100.00;101091.59;5082057;28;20027;-79
2023/08/07 02:45:52;;;;;;;6.70;1.60;;;;;;;11.87;100.00;101109.16;5093899;28;20407;-79
2023/08/07 02:48:39;;;;;;;5.70;1.75;;;;;;;11.88;100.00;101098.84;5092145;28;20032;-79
2023/08/07 02:51:25;;;;;;;6.72;1.48;;;;;;;11.82;100.00;101098.84;5091514;28;20032;-79
2023/08/07 02:54:11;;;;;;;4.00;1.30;;;;;;;11.81;100.00;101094.41;5080221;28;20038;-78
2023/08/07 02:56:57;;;;;;;3.75;1.55;;;;;;;11.81;100.00;101102.75;5098547;28;20119;-78
2023/08/07 02:59:43;;;;;;;3.78;1.50;;;;;;;11.77;100.00;101098.88;5086672;28;20028;-78
2023/08/07 03:02:28;;;;;;;2.85;1.60;;;;;;;11.76;100.00;101097.22;5097046;28;20084;-78
2023/08/07 03:05:14;;;;;;;2.88;1.52;;;;;;;11.76;100.00;101100.00;5079724;28;20047;-78
2023/08/07 03:08:00;;;;;;;4.32;1.75;;;;;;;11.73;100.00;101096.94;5089143;28;20043;-78
2023/08/07 03:10:56;;;;;;;5.95;1.48;;;;;;;11.73;100.00;101096.94;5108802;28;20048;-78
2023/08/07 03:13:44;;;;;;;3.45;1.58;;;;;;;11.72;100.00;101093.34;5074123;28;20083;-79
2023/08/07 03:16:29;;;;;;;3.67;1.23;;;;;;;11.68;100.00;101102.56;5087571;28;20051;-79
2023/08/07 03:19:15;;;;;;;5.03;1.50;;;;;;;11.66;100.00;101102.84;5085568;28;20039;-78
2023/08/07 03:22:01;;;;;;;4.00;1.55;;;;;;;11.61;100.00;101100.91;5070324;28;20093;-79
2023/08/07 03:24:47;;;;;;;3.08;1.20;;;;;;;11.61;100.00;101098.13;5077095;28;20084;-79
2023/08/07 03:27:33;;;;;;;5.85;1.58;;;;;;;11.60;100.00;101093.69;5089117;28;20040;-78
2023/08/07 03:30:19;;;;;;;6.10;1.67;;;;;;;11.56;100.00;101091.75;5090741;28;20042;-78
2023/08/07 03:33:06;;;;;;;6.47;1.65;;;;;;;11.54;100.00;101089.28;5080156;28;20127;-78
2023/08/07 03:35:52;;;;;;;2.92;1.40;;;;;;;11.51;100.00;101089.84;5102116;28;20747;-79
2023/08/07 03:38:38;;;;;;;4.90;1.63;;;;;;;11.50;100.00;101090.94;5095789;28;20032;-80
2023/08/07 03:41:24;;;;;;;6.25;1.70;;;;;;;11.50;100.00;101090.13;5083694;28;20593;-81
2023/08/07 03:44:09;;;;;;;4.75;1.90;;;;;;;11.47;100.00;101088.75;5064283;28;20398;-81
2023/08/07 03:46:57;;;;;;;6.80;1.92;;;;;;;11.45;100.00;101079.88;5075270;28;20032;-81
2023/08/07 03:49:43;;;;;;;4.53;1.33;;;;;;;11.48;100.00;101078.44;5077634;28;20036;-80
2023/08/07 03:52:29;;;;;;;3.25;1.77;;;;;;;11.47;100.00;101083.19;5067020;28;20032;-81
2023/08/07 03:55:14;;;;;;;4.47;1.75;;;;;;;11.41;100.00;101090.72;5090334;28;20027;-79
2023/08/07 03:58:00;;;;;;;5.45;1.85;;;;;;;11.43;100.00;101086.84;5088752;28;20032;-78
2023/08/07 04:00:46;;;;;;;4.05;1.73;;;;;;;11.43;100.00;101086.84;5113064;28;20371;-79
2023/08/07 04:03:32;;;;;;;5.13;1.88;;;;;;;11.41;100.00;101092.69;5095012;28;20036;-79
2023/08/07 04:06:17;;;;;;;4.90;2.05;;;;;;;11.43;100.00;101092.41;5094973;28;20450;-78
2023/08/07 04:09:03;;;;;;;5.47;2.33;;;;;;;11.41;100.00;101089.91;5094748;28;20059;-79
2023/08/07 04:11:49;;;;;;;4.22;1.70;;;;;;;11.38;100.00;101084.91;5077582;28;20036;-79
2023/08/07 04:14:35;;;;;;;4.97;1.73;;;;;;;11.38;100.00;101082.13;5091114;28;20040;-79
2023/08/07 04:17:21;;;;;;;5.00;1.60;;;;;;;11.35;100.00;101080.75;5088860;28;20047;-78
2023/08/07 04:20:08;;;;;;;4.28;1.30;;;;;;;11.35;100.00;101091.03;5065206;28;20476;-78
2023/08/07 04:22:54;;;;;;;5.63;1.60;;;;;;;11.35;100.00;101086.31;5064206;28;20035;-79
2023/08/07 04:25:39;;;;;;;6.60;1.80;;;;;;;11.33;100.00;101088.53;5084845;28;20048;-78
2023/08/07 04:28:27;;;;;;;4.28;1.90;;;;;;;11.35;100.00;101091.88;5077597;28;20046;-78
2023/08/07 04:31:13;;;;;;;3.42;1.70;;;;;;;11.29;100.00;101093.00;5075883;28;20050;-78
2023/08/07 04:33:59;;;;;;;4.28;1.70;;;;;;;11.26;100.00;101087.19;5074975;28;20093;-79
2023/08/07 04:36:45;;;;;;;3.95;1.60;;;;;;;11.25;100.00;101091.91;5081829;28;20032;-78
2023/08/07 04:39:32;;;;;;;6.53;1.95;;;;;;;11.23;100.00;101087.75;5080183;28;20088;-78
2023/08/07 04:42:17;;;;;;;4.40;1.80;;;;;;;11.20;100.00;101091.94;5074368;28;20035;-81
2023/08/07 04:45:03;;;;;;;3.63;1.33;;;;;;;11.19;100.00;101098.59;5074078;28;20032;-81
2023/08/07 04:47:49;;;;;;;5.75;1.63;;;;;;;11.16;100.00;101088.06;5092225;28;20115;-80
2023/08/07 04:50:35;;;;;;;3.95;1.60;;;;;;;11.17;100.00;101100.84;5101596;28;20036;-80
2023/08/07 04:53:21;;;;;;;4.28;1.50;;;;;;;11.17;100.00;101095.28;5088149;28;20618;-80
2023/08/07 04:56:07;;;;;;;4.35;1.45;;;;;;;11.14;100.00;101098.63;5088038;28;20034;-80
2023/08/07 04:58:52;;;;;;;5.90;1.92;;;;;;;11.10;100.00;101100.31;5076956;28;20031;-80
2023/08/07 05:01:38;;;;;;;4.60;1.58;;;;;;;11.11;100.00;101099.19;5090652;28;20036;-80
2023/08/07 05:04:24;;;;;;;4.13;1.42;;;;;;;11.12;100.00;101103.66;5088891;28;20044;-80
2023/08/07 05:07:10;;;;;;;5.22;1.67;;;;;;;11.09;100.00;101107.00;5065639;28;20131;-80
2023/08/07 05:09:56;;;;;;;4.53;1.58;;;;;;;11.11;100.00;101113.09;5100377;28;20086;-80
2023/08/07 05:12:42;;;;;;;5.25;2.05;;;;;;;11.05;100.00;101103.94;5099221;28;20035;-80
2023/08/07 05:15:28;;;;;;;5.88;1.52;;;;;;;11.06;100.00;101107.53;5081682;28;20031;-80
2023/08/07 05:18:15;;;;;;;7.55;1.60;;;;;;;11.04;100.00;101102.28;5068942;28;20044;-80
2023/08/07 05:21:00;;;;;;;2.47;1.50;;;;;;;11.03;100.00;101108.97;5079612;28;20459;-80
2023/08/07 05:23:47;;;;;;;5.30;1.80;;;;;;;11.03;100.00;101113.66;5085135;28;20036;-80
2023/08/07 05:26:33;;;;;;;3.95;1.73;;;;;;;11.06;100.00;101115.88;5072238;28;20400;-80
2023/08/07 05:29:19;;;;;;;3.63;1.35;;;;;;;11.09;100.00;101107.84;5089367;28;20039;-80
2023/08/07 05:32:06;;;;;;;3.90;1.50;;;;;;;11.10;100.00;101117.00;5091085;28;20083;-80
2023/08/07 05:34:52;;;;;;;4.43;1.63;;;;;;;11.12;100.00;101121.16;5101683;28;20071;-80
2023/08/07 05:37:38;;;;;;;4.45;1.73;;;;;;;11.14;100.00;101120.88;5097511;28;20113;-80
2023/08/07 05:40:24;;;;;;;3.50;1.50;;;;;;;11.20;100.00;101119.75;5084401;28;20503;-80
2023/08/07 05:43:10;;;;;;;4.90;1.50;;;;;;;11.25;100.00;101118.88;5110708;28;20571;-80
2023/08/07 05:45:56;;;;;;;2.95;1.35;;;;;;;11.31;100.00;101112.19;5069210;28;20038;-79
2023/08/07 05:48:42;;;;;;;4.32;1.77;;;;;;;11.42;100.00;101119.34;5092744;28;20036;-80
2023/08/07 05:51:28;;;;;;;5.53;1.60;;;;;;;11.52;100.00;101118.50;5097730;28;20031;-81
2023/08/07 05:54:13;;;;;;;5.20;1.60;;;;;;;11.59;100.00;101124.59;5087735;28;20499;-80
2023/08/07 05:57:01;;;;;;;3.65;1.73;;;;;;;11.67;100.00;101126.75;5098917;28;20540;-81
2023/08/07 05:59:46;;;;;;;4.93;2.35;;;;;;;11.76;100.00;101125.06;5101940;28;20039;-81
2023/08/07 06:02:32;;;;;;;4.38;2.53;;;;;;;11.86;100.00;101129.75;5098272;28;20119;-80
2023/08/07 06:05:18;;;;;;;2.88;2.20;;;;;;;11.96;100.00;101135.25;5082338;28;20467;-81
2023/08/07 06:08:04;;;;;;;3.55;1.88;;;;;;;12.05;100.00;101132.69;5093515;28;20040;-80
2023/08/07 06:10:50;;;;;;;3.88;2.10;;;;;;;12.18;100.00;101128.44;5076926;28;20024;-81
2023/08/07 06:13:35;;;;;;;4.50;2.15;;;;;;;12.33;100.00;101139.44;5078015;28;20028;-81
2023/08/07 06:16:21;;;;;;;3.50;2.17;;;;;;;12.48;100.00;101141.25;5115647;28;20077;-80
2023/08/07 06:19:08;;;;;;;2.47;1.50;;;;;;;12.65;100.00;101135.28;5098189;28;20032;-81
2023/08/07 06:21:54;;;;;;;3.35;1.73;;;;;;;12.83;100.00;101144.84;5084929;28;20052;-81
2023/08/07 06:24:40;;;;;;;2.75;1.60;;;;;;;13.02;100.00;101136.59;5089213;28;20035;-81
2023/08/07 06:27:25;;;;;;;3.15;1.85;;;;;;;13.18;100.00;101132.50;5098766;28;20038;-81
2023/08/07 06:30:11;;;;;;;3.83;1.85;;;;;;;13.37;100.00;101138.16;5081816;28;20044;-79
2023/08/07 06:32:57;;;;;;;4.53;1.70;;;;;;;13.55;100.00;101142.94;5066625;28;20036;-79
2023/08/07 06:35:43;;;;;;;4.18;1.83;;;;;;;13.76;100.00;101137.94;5093439;28;20081;-79
2023/08/07 06:38:29;;;;;;;5.20;1.80;;;;;;;13.96;100.00;101139.63;5084007;28;20028;-79
2023/08/07 06:41:15;;;;;;;4.50;1.50;;;;;;;14.17;100.00;101142.91;5084040;28;20093;-79
2023/08/07 06:44:01;;;;;;;4.57;1.77;;;;;;;14.37;100.00;101143.72;5074035;28;20028;-79
2023/08/07 06:46:47;;;;;;;3.40;1.67;;;;;;;14.57;100.00;101148.16;5090716;28;20036;-79
2023/08/07 06:49:33;;;;;;;7.88;2.38;;;;;;;14.76;100.00;101151.75;5085963;28;20091;-79
2023/08/07 06:52:18;;;;;;;4.78;2.30;;;;;;;14.92;100.00;101163.50;5064793;28;20492;-79
2023/08/07 06:55:05;;;;;;;4.63;1.77;;;;;;;15.12;100.00;101160.31;5075608;28;20040;-79
2023/08/07 06:57:50;;;;;;;3.80;1.60;;;;;;;15.33;100.00;101157.97;5095529;28;20038;-79
2023/08/07 07:00:36;;;;;;;4.15;2.10;;;;;;;15.52;100.00;101160.66;5083372;28;20395;-79
2023/08/07 07:03:22;;;;;;;6.78;1.88;;;;;;;15.71;100.00;101162.53;5091539;28;20422;-79
2023/08/07 07:06:08;;;;;;;3.42;1.83;;;;;;;15.90;100.00;101162.41;5094544;28;20066;-79
2023/08/07 07:08:54;;;;;;;3.95;1.67;;;;;;;16.09;100.00;101157.47;5082600;28;20555;-79
2023/08/07 07:11:39;;;;;;;3.55;1.88;;;;;;;16.29;100.00;101158.97;5076991;28;20039;-80
2023/08/07 07:14:25;;;;;;;5.43;2.05;;;;;;;16.49;100.00;101155.69;5076613;28;20059;-80
2023/08/07 07:17:11;;;;;;;6.68;1.77;;;;;;;16.68;100.00;101163.88;5084336;28;20577;-80
2023/08/07 07:19:57;;;;;;;4.15;1.70;;;;;;;16.88;100.00;101161.72;5078245;28;20506;-80
2023/08/07 07:22:43;;;;;;;5.03;1.92;;;;;;;17.04;100.00;101160.19;5084035;28;20031;-80
2023/08/07 07:25:28;;;;;;;3.40;1.40;;;;;;;17.25;100.00;101165.25;5084534;28;20032;-80
2023/08/07 07:28:14;;;;;;;4.55;1.45;;;;;;;17.43;100.00;101162.16;5095559;28;20039;-80
2023/08/07 07:31:00;;;;;;;4.32;1.60;;;;;;;17.61;100.00;101162.25;5075493;28;20035;-80
2023/08/07 07:33:46;;;;;;;4.35;1.60;;;;;;;17.80;100.00;101154.41;5088559;28;20031;-80
2023/08/07 07:36:32;;;;;;;4.70;1.88;;;;;;;17.96;100.00;101163.16;5093655;28;20465;-80
2023/08/07 07:39:18;;;;;;;5.85;1.85;;;;;;;18.15;100.00;101165.66;5102076;28;20096;-80
2023/08/07 07:42:04;;;;;;;6.25;2.03;;;;;;;18.32;100.00;101159.22;5099286;28;20035;-80
2023/08/07 07:44:50;;;;;;;5.13;2.00;;;;;;;18.49;100.00;101159.22;5094811;28;20035;-80
2023/08/07 07:47:36;;;;;;;8.10;2.45;;;;;;;18.62;100.00;101156.56;5090844;28;20039;-81
2023/08/07 07:50:22;;;;;;;5.15;1.70;;;;;;;18.78;100.00;101166.19;5100027;28;20030;-81
2023/08/07 07:53:08;;;;;;;7.20;1.77;;;;;;;18.92;100.00;101165.97;5084680;28;20085;-81
2023/08/07 07:55:54;;;;;;;5.63;1.83;;;;;;;19.04;100.00;101168.09;5078748;28;20046;-81
2023/08/07 07:58:40;;;;;;;7.05;1.67;;;;;;;19.18;100.00;101152.63;5076949;28;20036;-80
2023/08/07 08:01:26;;;;;;;4.72;1.50;;;;;;;19.37;100.00;101160.69;5106713;28;20092;-81
2023/08/07 08:04:12;;;;;;;4.15;1.55;;;;;;;19.52;100.00;101162.09;5078672;28;20036;-81
2023/08/07 08:06:59;;;;;;;8.38;1.88;;;;;;;19.61;100.00;101162.91;5091297;28;20040;-81
2023/08/07 08:09:45;;;;;;;5.35;1.30;;;;;;;19.76;100.00;101163.50;5089376;28;20048;-81
2023/08/07 08:12:30;;;;;;;6.50;1.70;;;;;;;19.82;100.00;101168.59;5094522;28;20042;-81
2023/08/07 08:15:16;;;;;;;5.60;1.40;;;;;;;19.89;100.00;101168.03;5080120;28;20541;-81
2023/08/07 08:18:02;;;;;;;5.63;1.60;;;;;;;20.01;100.00;101161.69;5089977;28;20043;-81
2023/08/07 08:20:48;;;;;;;5.82;1.70;;;;;;;20.07;100.00;101154.69;5080855;28;20080;-81
2023/08/07 08:23:34;;;;;;;9.48;1.63;;;;;;;20.18;100.00;101166.38;5084902;28;20089;-81
2023/08/07 08:26:19;;;;;;;4.70;1.40;;;;;;;20.27;100.00;101167.94;5097986;28;20066;-81
2023/08/07 08:29:07;;;;;;;5.30;1.83;;;;;;;20.42;100.00;101158.06;5103704;28;20407;-81
2023/08/07 08:31:54;;;;;;;5.32;1.42;;;;;;;20.49;100.00;101155.47;5089482;28;20036;-81
2023/08/07 08:34:40;;;;;;;8.45;1.60;;;;;;;20.55;100.00;101158.94;5079751;28;20553;-81
2023/08/07 08:37:27;;;;;;;7.97;1.77;;;;;;;20.59;100.00;101145.81;5074652;28;20038;-80
2023/08/07 08:40:16;;;;;;;9.40;1.52;;;;;;;20.62;100.00;101159.22;5072920;28;20028;-81
2023/08/07 08:43:04;;;;;;;5.65;1.52;;;;;;;20.58;100.00;101143.31;5083042;28;20046;-81
2023/08/07 08:45:50;;;;;;;9.57;1.75;;;;;;;20.62;100.00;101152.75;5063029;28;20038;-81
2023/08/07 08:48:38;;;;;;;8.75;1.80;;;;;;;20.66;100.00;101146.06;5074075;28;20472;-81
2023/08/07 08:51:25;;;;;;;3.95;1.20;;;;;;;20.67;100.00;101149.69;5081832;27;20110;-81
2023/08/07 08:54:10;;;;;;;5.65;1.60;;;;;;;20.66;100.00;101150.88;5078348;28;20032;-80
2023/08/07 08:56:57;;;;;;;5.25;1.45;;;;;;;20.60;100.00;101150.28;5100382;28;20408;-81
2023/08/07 08:59:42;;;;;;;5.80;1.38;;;;;;;20.72;100.00;101150.31;5077810;28;20066;-81
2023/08/07 09:02:28;;;;;;;4.32;1.33;;;;;;;20.77;100.00;101154.09;5075905;28;20040;-81
2023/08/07 09:05:15;;;;;;;8.07;1.85;;;;;;;20.87;100.00;101164.97;5077257;28;20188;-81
2023/08/07 09:08:01;;;;;;;5.97;1.70;;;;;;;20.98;100.00;101163.34;5095084;28;20050;-81
2023/08/07 09:10:46;;;;;;;6.43;1.70;;;;;;;21.10;100.00;101156.91;5078462;28;20050;-81
2023/08/07 09:13:32;;;;;;;6.10;1.50;;;;;;;21.22;100.00;101161.72;5071796;28;20042;-81
2023/08/07 09:16:18;;;;;;;7.60;1.63;;;;;;;21.36;100.00;101162.22;5081711;28;20083;-81
2023/08/07 09:19:04;;;;;;;6.55;1.20;;;;;;;21.59;100.00;101162.59;5091399;28;20108;-81
2023/08/07 09:21:50;;;;;;;4.57;1.00;;;;;;;21.73;100.00;101167.91;5061571;28;20036;-81
2023/08/07 09:24:36;;;;;;;8.43;1.30;;;;;;;21.81;100.00;101175.44;5089820;28;20071;-81
2023/08/07 09:27:22;;;;;;;4.70;1.10;;;;;;;22.07;100.00;101166.59;5086730;28;20111;-81
2023/08/07 09:30:09;;;;;;;5.15;1.17;;;;;;;22.22;100.00;101165.84;5098443;28;20030;-81
2023/08/07 09:32:59;;;;;;;3.83;0.90;;;;;;;22.38;100.00;101163.13;5103961;28;20039;-81
2023/08/07 09:35:44;;;;;;;4.65;1.20;;;;;;;22.57;100.00;101159.63;5077148;28;20467;-81
2023/08/07 09:38:33;;;;;;;5.70;1.08;;;;;;;22.72;98.66;101161.66;5077785;28;20031;-80
2023/08/07 09:41:20;;;;;;;3.55;0.93;;;;;;;22.98;100.00;101154.72;5079458;28;20038;-80
2023/08/07 09:44:10;;;;;;;4.50;0.85;;;;;;;23.17;100.00;101152.00;5103460;28;20036;-80
2023/08/07 09:46:56;;;;;;;5.78;1.30;;;;;;;23.47;96.85;101153.56;5102664;28;20039;-80
2023/08/07 09:49:43;;;;;;;3.70;1.30;;;;;;;23.68;99.68;101159.78;5090683;28;20027;-80
2023/08/07 09:52:28;;;;;;;4.65;1.30;;;;;;;23.91;99.50;101148.59;5084574;28;20036;-80
2023/08/07 09:55:15;;;;;;;4.82;1.10;;;;;;;24.13;97.11;101147.06;5091229;28;20035;-80
2023/08/07 09:58:01;;;;;;;5.03;1.38;;;;;;;24.31;93.10;101153.94;5081612;28;20027;-78
2023/08/07 10:00:50;;;;;;;4.85;1.20;;;;;;;24.52;92.46;101158.47;5096027;28;20458;-78
2023/08/07 10:03:36;;;;;;;5.85;1.10;;;;;;;24.66;84.01;101150.25;5073329;28;20036;-77
2023/08/07 10:06:22;;;;;;;4.68;0.85;;;;;;;24.90;80.93;101139.75;5090892;28;20487;-74
2023/08/07 10:09:09;;;;;;;2.25;0.85;;;;;;;25.19;84.01;101150.47;5088790;28;20056;-78
2023/08/07 10:11:54;;;;;;;2.83;0.80;;;;;;;25.32;80.13;101145.41;5080849;28;20043;-77
2023/08/07 10:14:40;;;;;;;3.72;0.90;;;;;;;25.39;80.74;101139.84;5077350;28;20109;-77
2023/08/07 10:17:26;;;;;;;3.97;1.00;;;;;;;25.46;77.98;101135.47;5096997;28;20036;-77
2023/08/07 10:20:12;;;;;;;4.90;0.90;;;;;;;25.54;70.04;101138.06;5082396;28;20031;-78
2023/08/07 10:23:08;;;;;;;4.65;0.93;;;;;;;25.60;75.72;101124.34;5079888;28;20043;-78
2023/08/07 10:25:54;;;;;;;3.95;1.08;;;;;;;25.54;73.26;101128.72;5094666;28;20047;-77
2023/08/07 10:28:40;;;;;;;3.88;0.85;;;;;;;25.67;70.98;101132.16;5081552;28;20112;-78
2023/08/07 10:31:26;;;;;;;3.30;0.93;;;;;;;25.73;75.55;101130.63;5092303;28;20391;-78
2023/08/07 10:34:12;;;;;;;2.92;0.73;;;;;;;25.75;72.47;101119.69;5104510;28;20062;-77
2023/08/07 10:36:58;;;;;;;3.65;0.88;;;;;;;25.76;73.27;101129.88;5119309;28;20028;-77
2023/08/07 10:40:03;;;;;;;3.85;1.02;;;;;;;25.86;71.70;101132.09;5105125;28;20076;-78
2023/08/07 10:42:59;;;;;;;3.20;0.70;;;;;;;25.90;68.45;101132.94;5103924;28;20038;-77
2023/08/07 10:45:44;;;;;;;3.53;0.73;;;;;;;26.05;68.73;101129.13;5118294;28;20043;-77
2023/08/07 10:48:31;;;;;;;3.67;0.70;;;;;;;26.18;71.43;101135.38;5119072;28;20028;-77
2023/08/07 10:51:17;;;;;;;2.13;0.50;;;;;;;26.25;63.57;101123.28;5083881;27;20084;-77
2023/08/07 10:54:03;;;;;;;3.88;0.80;;;;;;;26.21;62.20;101122.41;5086399;28;20031;-77
2023/08/07 10:56:52;;;;;;;2.85;0.70;;;;;;;26.19;64.13;101114.25;5105132;27;20032;-76
2023/08/07 10:59:38;;;;;;;3.55;0.88;;;;;;;26.19;66.38;101113.44;5089783;27;20023;-82
2023/08/07 11:02:28;;;;;;;2.55;0.75;;;;;;;26.14;63.27;101120.28;5102567;28;20035;-82
2023/08/07 11:05:13;;;;;;;3.05;0.70;;;;;;;26.10;61.37;101121.44;5075594;28;20078;-82
2023/08/07 11:07:59;;;;;;;2.63;0.77;;;;;;;26.15;62.20;101118.25;5088756;27;20395;-82
2023/08/07 11:10:45;;;;;;;1.73;0.40;;;;;;;26.21;65.37;101119.56;5095621;28;20028;-82
2023/08/07 11:13:31;;;;;;;2.22;0.80;;;;;;;26.22;57.35;101119.19;5079948;28;20031;-82
2023/08/07 11:16:17;;;;;;;2.17;0.63;;;;;;;26.30;62.30;101111.56;5099846;28;20052;-82
2023/08/07 11:19:03;;;;;;;4.40;0.80;;;;;;;26.40;60.04;101112.88;5083196;28;20089;-82
2023/08/07 11:21:50;;;;;;;3.58;0.73;;;;;;;26.48;62.05;101112.56;5079782;28;20074;-82
2023/08/07 11:24:36;;;;;;;2.72;0.82;;;;;;;26.48;55.82;101114.63;5088963;28;20035;-82
2023/08/07 11:27:22;;;;;;;2.85;0.77;;;;;;;26.53;60.12;101114.31;5094408;28;20399;-82
2023/08/07 11:30:11;;;;;;;3.85;1.00;;;;;;;26.54;61.41;101110.22;5095269;28;20081;-82
2023/08/07 11:32:57;;;;;;;3.80;0.90;;;;;;;26.56;61.96;101104.16;5065962;28;20097;-82
2023/08/07 11:35:43;;;;;;;3.13;0.80;;;;;;;26.68;63.99;101110.41;5090761;28;20065;-81
2023/08/07 11:38:31;;;;;;;3.15;0.80;;;;;;;26.79;65.40;101110.50;5075409;28;20025;-82
2023/08/07 11:41:18;;;;;;;5.00;0.80;;;;;;;26.92;58.91;101108.22;5092626;28;20056;-82
2023/08/07 11:44:04;;;;;;;3.35;0.80;;;;;;;26.99;52.31;101104.59;5077816;28;20381;-82
2023/08/07 11:46:51;;;;;;;2.05;0.68;;;;;;;27.13;54.98;101104.72;5093134;28;20430;-82
2023/08/07 11:49:37;;;;;;;3.22;0.88;;;;;;;27.24;49.23;101102.81;5079918;28;20066;-82
2023/08/07 11:52:24;;;;;;;3.08;0.68;;;;;;;27.39;49.38;101100.94;5066728;28;20078;-82
2023/08/07 11:55:10;;;;;;;2.58;0.85;;;;;;;27.51;49.69;101103.47;5089101;28;20043;-82
2023/08/07 11:57:55;;;;;;;2.70;0.60;;;;;;;27.61;51.21;101097.03;5094588;28;20073;-82
2023/08/07 12:00:45;;;;;;;3.65;0.88;;;;;;;27.77;54.14;101096.69;5089467;28;20031;-82
2023/08/07 12:03:33;;;;;;;2.42;0.80;;;;;;;27.94;53.34;101094.38;5078643;28;20031;-81
2023/08/07 12:06:18;;;;;;;2.85;0.75;;;;;;;28.09;54.32;101087.53;5076228;28;20044;-81
2023/08/07 12:09:05;;;;;;;1.65;0.50;;;;;;;28.21;52.80;101090.03;5096091;28;20048;-82
2023/08/07 12:11:56;;;;;;;2.25;0.65;;;;;;;28.31;50.96;101087.66;5098478;28;20171;-81
2023/08/07 12:14:42;;;;;;;4.35;0.88;;;;;;;28.40;46.94;101086.03;5072320;28;20441;-81
2023/08/07 12:17:31;;;;;;;2.20;0.65;;;;;;;28.47;49.52;101080.38;5081829;28;20039;-81
2023/08/07 12:20:18;;;;;;;3.25;0.60;;;;;;;28.46;45.81;101075.06;5084303;28;20488;-81
2023/08/07 12:23:03;;;;;;;2.40;0.65;;;;;;;28.45;43.29;101070.59;5087336;28;20115;-81
2023/08/07 12:25:49;;;;;;;4.95;0.70;;;;;;;28.51;43.15;101074.69;5105942;28;20341;-81
2023/08/07 12:28:35;;;;;;;1.88;0.60;;;;;;;28.57;45.25;101080.81;5079183;28;20138;-81
2023/08/07 12:31:21;;;;;;;3.17;0.75;;;;;;;28.59;46.48;101078.38;5092380;28;20119;-81
2023/08/07 12:34:08;;;;;;;2.15;0.60;;;;;;;28.59;45.04;101079.19;5087696;28;20176;-81
2023/08/07 12:36:54;;;;;;;6.28;0.95;;;;;;;28.54;45.71;101068.16;5075188;28;20499;-81
2023/08/07 12:39:40;;;;;;;2.95;0.77;;;;;;;28.50;47.10;101070.16;5097824;28;20513;-81
2023/08/07 12:42:26;;;;;;;2.60;0.70;;;;;;;28.54;44.97;101059.59;5095950;28;20036;-82
2023/08/07 12:45:12;;;;;;;3.92;0.88;;;;;;;28.52;46.61;101062.00;5084009;28;20035;-81
2023/08/07 12:47:58;;;;;;;1.77;0.55;;;;;;;28.43;45.49;101065.25;5088470;28;20036;-81